createdAt,value
2023-02-08T00:01:33.626Z,24.00
2023-02-08T00:04:02.860Z,28.50
2023-02-08T00:06:31.322Z,23.75
2023-02-08T00:09:01.698Z,27.25
2023-02-08T00:11:30.192Z,25.50
2023-02-08T00:14:00.228Z,25.50
2023-02-08T00:16:28.857Z,30.00
2023-02-08T00:18:57.391Z,28.75
2023-02-08T00:21:26.246Z,22.00
2023-02-08T00:23:54.645Z,24.50
2023-02-08T00:26:23.853Z,29.00
2023-02-08T00:28:52.328Z,28.50
2023-02-08T00:31:22.750Z,30.00
2023-02-08T00:33:51.522Z,31.25
2023-02-08T00:36:20.679Z,30.00
2023-02-08T00:38:49.068Z,30.50
2023-02-08T00:41:18.424Z,26.00
2023-02-08T00:43:49.207Z,30.00
2023-02-08T00:46:17.548Z,30.00
2023-02-08T00:48:47.625Z,27.25
2023-02-08T00:51:16.020Z,30.00
2023-02-08T00:53:46.192Z,30.50
2023-02-08T00:56:15.993Z,29.00
2023-02-08T00:58:44.714Z,28.50
2023-02-08T01:01:13.661Z,27.75
2023-02-08T01:03:43.695Z,28.50
2023-02-08T01:06:16.994Z,24.00
2023-02-08T01:08:46.732Z,33.00
2023-02-08T01:11:21.849Z,30.50
2023-02-08T01:13:50.358Z,30.25
2023-02-08T01:16:20.784Z,30.50
2023-02-08T01:18:51.215Z,29.00
2023-02-08T01:21:24.742Z,30.75
2023-02-08T01:23:53.440Z,32.50
2023-02-08T01:26:25.166Z,33.25
2023-02-08T01:28:55.022Z,31.75
2023-02-08T01:31:29.061Z,30.00
2023-02-08T01:33:59.198Z,34.50
2023-02-08T01:36:30.660Z,34.50
2023-02-08T01:38:59.035Z,34.50
2023-02-08T01:41:29.956Z,33.00
2023-02-08T01:44:05.109Z,33.50
2023-02-08T01:46:34.689Z,32.00
2023-02-08T01:49:08.246Z,33.75
2023-02-08T01:51:42.177Z,35.50
2023-02-08T01:54:12.474Z,30.75
2023-02-08T01:56:45.954Z,36.50
2023-02-08T01:59:18.752Z,33.50
2023-02-08T02:01:48.940Z,36.25
2023-02-08T02:04:17.777Z,31.00
2023-02-08T02:06:51.853Z,36.50
2023-02-08T02:09:25.937Z,33.50
2023-02-08T02:11:56.242Z,36.00
2023-02-08T02:14:26.673Z,31.50
2023-02-08T02:16:55.031Z,33.75
2023-02-08T02:19:32.931Z,36.00
2023-02-08T02:22:18.965Z,34.00
2023-02-08T02:25:08.230Z,36.00
2023-02-08T02:27:54.293Z,33.50
2023-02-08T02:30:45.535Z,33.25
2023-02-08T02:33:46.002Z,33.00
2023-02-08T02:36:25.607Z,33.75
2023-02-08T02:39:06.422Z,33.00
2023-02-08T02:42:03.585Z,6.75
2023-02-08T02:44:42.136Z,34.00
2023-02-08T02:47:20.350Z,32.75
2023-02-08T02:49:51.800Z,30.00
2023-02-08T02:52:33.685Z,33.00
2023-02-08T02:55:07.499Z,33.00
2023-02-08T02:57:37.249Z,27.75
2023-02-08T03:00:09.904Z,33.00
2023-02-08T03:02:38.565Z,33.00
2023-02-08T03:05:08.709Z,33.00
2023-02-08T03:08:14.188Z,33.00
2023-02-08T03:10:55.241Z,30.00
2023-02-08T03:13:33.853Z,30.00
2023-02-08T03:16:15.350Z,31.25
2023-02-08T03:18:57.687Z,34.00
2023-02-08T03:21:38.583Z,30.50
2023-02-08T03:24:22.643Z,33.25
2023-02-08T03:26:57.182Z,30.00
2023-02-08T03:29:38.857Z,33.25
2023-02-08T03:32:11.364Z,34.00
2023-02-08T03:34:47.262Z,35.00
2023-02-08T03:37:21.234Z,36.00
2023-02-08T03:39:57.141Z,36.25
2023-02-08T03:42:28.923Z,34.00
2023-02-08T03:45:01.654Z,33.00
2023-02-08T03:47:35.471Z,35.00
2023-02-08T03:50:09.526Z,36.00
2023-02-08T03:52:39.426Z,33.50
2023-02-08T03:55:14.892Z,33.75
2023-02-08T03:57:49.255Z,35.75
2023-02-08T04:00:19.986Z,36.25
2023-02-08T04:02:55.546Z,35.50
2023-02-08T04:05:25.678Z,33.75
2023-02-08T04:07:54.168Z,34.00
2023-02-08T04:10:24.049Z,33.00
2023-02-08T04:12:53.298Z,36.00
2023-02-08T04:15:22.162Z,34.00
2023-02-08T04:17:50.555Z,36.00
2023-02-08T04:20:18.941Z,35.00
2023-02-08T04:22:47.311Z,35.50
2023-02-08T04:25:16.075Z,34.50
2023-02-08T04:27:45.858Z,35.00
2023-02-08T04:30:15.183Z,33.50
2023-02-08T04:32:43.541Z,33.00
2023-02-08T04:35:12.000Z,35.00
2023-02-08T04:37:40.418Z,37.50
2023-02-08T04:40:09.449Z,36.00
2023-02-08T04:42:37.793Z,37.00
2023-02-08T04:45:08.611Z,33.75
2023-02-08T04:47:37.047Z,35.50
2023-02-08T04:50:06.164Z,32.75
2023-02-08T04:52:34.508Z,30.00
2023-02-08T04:55:02.807Z,33.00
2023-02-08T04:57:31.479Z,36.25
2023-02-08T05:00:00.481Z,30.75
2023-02-08T05:02:30.474Z,33.00
2023-02-08T05:04:58.830Z,33.00
2023-02-08T05:07:27.280Z,33.50
2023-02-08T05:09:55.619Z,36.25
2023-02-08T05:12:24.135Z,36.25
2023-02-08T05:14:52.618Z,39.00
2023-02-08T05:17:20.976Z,34.00
2023-02-08T05:19:50.893Z,32.50
2023-02-08T05:22:19.178Z,34.00
2023-02-08T05:24:47.700Z,37.50
2023-02-08T05:27:18.013Z,34.00
2023-02-08T05:29:46.385Z,29.00
2023-02-08T05:32:14.761Z,34.50
2023-02-08T05:34:43.184Z,33.75
2023-02-08T05:37:14.219Z,33.75
2023-02-08T05:39:42.599Z,33.75
2023-02-08T05:42:11.048Z,22.50
2023-02-08T05:44:39.448Z,32.50
2023-02-08T05:47:08.135Z,36.00
2023-02-08T05:49:36.520Z,29.00
2023-02-08T05:52:05.251Z,25.75
2023-02-08T05:54:35.368Z,30.50
2023-02-08T05:57:04.040Z,30.00
2023-02-08T05:59:32.330Z,32.50
2023-02-08T06:02:00.846Z,30.25
2023-02-08T06:04:29.258Z,30.00
2023-02-08T06:06:57.612Z,27.75
2023-02-08T06:09:25.960Z,30.75
2023-02-08T06:11:55.655Z,30.50
2023-02-08T06:14:24.500Z,30.00
2023-02-08T06:16:52.871Z,30.00
2023-02-08T06:19:21.343Z,27.25
2023-02-08T06:21:49.959Z,31.25
2023-02-08T06:24:18.284Z,28.50
2023-02-08T06:26:46.613Z,28.00
2023-02-08T06:29:16.600Z,28.50
2023-02-08T06:31:44.928Z,24.00
2023-02-08T06:34:13.940Z,29.50
2023-02-08T06:36:42.293Z,27.75
2023-02-08T06:39:10.641Z,27.75
2023-02-08T06:41:39.126Z,27.25
2023-02-08T06:44:07.528Z,25.50
2023-02-08T06:46:37.368Z,27.75
2023-02-08T06:49:05.938Z,25.75
2023-02-08T06:51:34.249Z,15.50
2023-02-08T06:54:02.552Z,27.00
2023-02-08T06:56:31.027Z,21.00
2023-02-08T06:58:59.544Z,23.00
2023-02-08T07:01:27.961Z,21.25
2023-02-08T07:03:57.823Z,27.00
2023-02-08T07:06:26.246Z,27.75
2023-02-08T07:08:54.940Z,19.50
2023-02-08T07:11:23.613Z,22.00
2023-02-08T07:13:52.923Z,24.50
2023-02-08T07:16:21.680Z,27.00
2023-02-08T07:18:50.082Z,21.50
2023-02-08T07:21:22.171Z,24.00
2023-02-08T07:23:50.510Z,24.75
2023-02-08T07:26:19.668Z,24.50
2023-02-08T07:28:47.962Z,24.00
2023-02-08T07:31:18.225Z,21.00
2023-02-08T07:33:46.599Z,26.25
2023-02-08T07:36:14.862Z,24.00
2023-02-08T07:38:45.041Z,21.50
2023-02-08T07:41:15.387Z,15.75
2023-02-08T07:43:44.479Z,13.50
2023-02-08T07:46:15.894Z,10.50
2023-02-08T07:48:45.348Z,19.25
2023-02-08T07:51:14.932Z,17.00
2023-02-08T07:53:44.717Z,21.50
2023-02-08T07:56:13.277Z,18.00
2023-02-08T07:58:41.569Z,14.00
2023-02-08T08:01:21.443Z,18.25
2023-02-08T08:03:51.537Z,20.00
2023-02-08T08:06:20.567Z,21.25
2023-02-08T08:08:50.908Z,21.00
2023-02-08T08:11:20.929Z,23.50
2023-02-08T08:13:49.303Z,25.25
2023-02-08T08:16:18.388Z,27.50
2023-02-08T08:18:47.391Z,24.00
2023-02-08T08:21:16.883Z,15.75
2023-02-08T08:23:45.464Z,20.00
2023-02-08T08:26:17.488Z,17.50
2023-02-08T08:28:47.384Z,27.00
2023-02-08T08:31:17.961Z,27.00
2023-02-08T08:33:46.974Z,23.50
2023-02-08T08:36:15.598Z,22.75
2023-02-08T08:38:44.202Z,22.00
2023-02-08T08:41:17.461Z,23.75
2023-02-08T08:43:46.076Z,24.50
2023-02-08T08:46:16.685Z,14.50
2023-02-08T08:48:45.541Z,24.75
2023-02-08T08:51:14.204Z,28.50
2023-02-08T08:53:42.511Z,22.50
2023-02-08T08:56:11.013Z,21.25
2023-02-08T08:58:40.747Z,30.00
2023-02-08T09:01:09.117Z,27.00
2023-02-08T09:03:37.633Z,27.50
2023-02-08T09:06:06.343Z,28.00
2023-02-08T09:08:34.657Z,25.25
2023-02-08T09:11:07.359Z,28.00
2023-02-08T09:13:36.144Z,28.00
2023-02-08T09:16:12.388Z,30.00
2023-02-08T09:18:40.898Z,30.50
2023-02-08T09:21:10.296Z,25.00
2023-02-08T09:23:39.069Z,27.25
2023-02-08T09:26:09.197Z,25.50
2023-02-08T09:28:37.544Z,33.00
2023-02-08T09:31:11.253Z,28.50
2023-02-08T09:33:40.013Z,27.75
2023-02-08T09:36:09.066Z,26.00
2023-02-08T09:38:37.681Z,31.50
2023-02-08T09:41:21.337Z,28.00
2023-02-08T09:44:02.035Z,27.25
2023-02-08T09:46:35.697Z,26.50
2023-02-08T09:49:11.972Z,32.50
2023-02-08T09:51:46.182Z,28.50
2023-02-08T09:54:19.695Z,31.00
2023-02-08T09:57:02.991Z,30.25
2023-02-08T09:59:35.087Z,30.00
2023-02-08T10:02:18.732Z,21.75
2023-02-08T10:05:00.993Z,30.25
2023-02-08T10:07:29.794Z,23.50
2023-02-08T10:10:01.398Z,31.00
2023-02-08T10:12:43.404Z,25.50
2023-02-08T10:15:26.922Z,33.00
2023-02-08T10:18:24.541Z,32.50
2023-02-08T10:21:09.014Z,26.00
2023-02-08T10:23:53.769Z,30.25
2023-02-08T10:26:33.225Z,31.25
2023-02-08T10:29:35.097Z,27.00
2023-02-08T10:32:26.705Z,24.00
2023-02-08T10:35:01.377Z,26.50
2023-02-08T10:37:35.012Z,23.00
2023-02-08T10:40:21.094Z,21.25
2023-02-08T10:43:00.589Z,23.00
2023-02-08T10:45:33.489Z,24.75
2023-02-08T10:48:07.059Z,26.50
2023-02-08T10:50:40.769Z,21.00
2023-02-08T10:53:17.105Z,16.50
2023-02-08T10:55:47.562Z,19.00
2023-02-08T10:58:18.911Z,21.50
2023-02-08T11:00:51.954Z,18.50
2023-02-08T11:03:24.332Z,21.75
2023-02-08T11:05:54.961Z,18.75
2023-02-08T11:08:25.224Z,16.00
2023-02-08T11:11:04.364Z,15.50
2023-02-08T11:13:37.864Z,16.50
2023-02-08T11:16:08.698Z,16.00
2023-02-08T11:18:40.805Z,17.50
2023-02-08T11:21:23.611Z,21.75
2023-02-08T11:23:53.972Z,24.25
2023-02-08T11:26:26.245Z,3.00
2023-02-08T11:29:02.513Z,21.00
2023-02-08T11:31:32.357Z,20.00
2023-02-08T11:34:03.559Z,16.00
2023-02-08T11:36:36.485Z,16.00
2023-02-08T11:39:18.652Z,12.50
2023-02-08T11:41:50.472Z,19.00
2023-02-08T11:44:24.544Z,21.00
2023-02-08T11:46:53.889Z,14.50
2023-02-08T11:49:25.348Z,16.50
2023-02-08T11:51:55.620Z,17.50
2023-02-08T11:54:41.392Z,17.25
2023-02-08T11:57:17.107Z,16.00
2023-02-08T11:59:45.736Z,15.50
2023-02-08T12:02:35.803Z,15.50
2023-02-08T12:05:05.491Z,12.75
2023-02-08T12:07:48.112Z,15.75
2023-02-08T12:10:45.678Z,17.00
2023-02-08T12:13:28.798Z,14.00
2023-02-08T12:16:10.964Z,14.00
2023-02-08T12:18:59.281Z,11.25
2023-02-08T12:21:33.691Z,16.00
2023-02-08T12:24:08.184Z,10.50
2023-02-08T12:27:01.993Z,11.50
2023-02-08T12:29:47.680Z,15.00
2023-02-08T12:32:51.791Z,13.50
2023-02-08T12:36:03.272Z,15.00
2023-02-08T12:39:19.085Z,11.50
2023-02-08T12:42:05.127Z,12.00
2023-02-08T12:44:41.792Z,9.25
2023-02-08T12:47:35.245Z,13.00
2023-02-08T12:50:15.698Z,10.00
2023-02-08T12:55:57.565Z,13.00
2023-02-08T12:58:33.344Z,9.50
2023-02-08T13:01:10.984Z,9.75
2023-02-08T13:03:49.373Z,11.50
2023-02-08T13:06:23.129Z,12.25
2023-02-08T13:08:56.348Z,12.50
2023-02-08T13:11:32.694Z,11.50
2023-02-08T13:14:12.681Z,13.50
2023-02-08T13:16:48.244Z,7.50
2023-02-08T13:19:30.883Z,11.50
2023-02-08T13:22:01.153Z,10.00
2023-02-08T13:24:37.871Z,9.25
2023-02-08T13:27:08.245Z,6.00
2023-02-08T13:29:39.376Z,3.25
2023-02-08T13:32:15.462Z,8.00
2023-02-08T13:34:48.262Z,10.50
2023-02-08T13:37:26.008Z,9.00
2023-02-08T13:40:03.121Z,8.00
2023-02-08T13:42:39.746Z,9.00
2023-02-08T13:45:12.349Z,7.00
2023-02-08T13:47:48.683Z,10.00
2023-02-08T13:50:49.079Z,7.00
2023-02-08T13:53:19.327Z,6.25
2023-02-08T13:56:08.380Z,9.25
2023-02-08T13:59:01.170Z,9.00
2023-02-08T14:01:33.070Z,13.00
2023-02-08T14:04:34.972Z,9.00
2023-02-08T14:07:30.416Z,9.00
2023-02-08T14:10:11.337Z,9.00
2023-02-08T14:12:50.223Z,10.50
2023-02-08T14:15:27.383Z,9.00
2023-02-08T14:18:03.129Z,10.00
2023-02-08T14:20:36.404Z,9.00
2023-02-08T14:23:08.205Z,8.00
2023-02-08T14:25:44.187Z,7.00
2023-02-08T14:28:33.589Z,9.00
2023-02-08T14:31:07.189Z,8.00
2023-02-08T14:33:41.110Z,9.00
2023-02-08T14:36:25.777Z,7.50
2023-02-08T14:39:06.966Z,10.25
2023-02-08T14:41:54.587Z,9.50
2023-02-08T14:44:51.490Z,9.00
2023-02-08T14:48:06.393Z,9.50
2023-02-08T14:51:17.218Z,9.00
2023-02-08T14:53:49.985Z,12.00
2023-02-08T14:56:23.253Z,9.50
2023-02-08T14:58:56.357Z,11.50
2023-02-08T15:01:35.400Z,12.00
2023-02-08T15:04:04.955Z,10.00
2023-02-08T15:07:10.806Z,10.50
2023-02-08T15:09:41.930Z,11.50
2023-02-08T15:12:18.932Z,7.00
2023-02-08T15:14:47.970Z,10.00
2023-02-08T15:17:34.884Z,11.00
2023-02-08T15:20:06.374Z,11.50
2023-02-08T15:22:38.382Z,9.50
2023-02-08T15:25:23.440Z,13.00
2023-02-08T15:27:56.249Z,12.50
2023-02-08T15:30:28.720Z,13.00
2023-02-08T15:32:58.941Z,16.00
2023-02-08T15:35:28.758Z,12.50
2023-02-08T15:37:59.183Z,13.50
2023-02-08T15:40:29.530Z,13.50
2023-02-08T15:43:05.111Z,16.50
2023-02-08T15:45:33.675Z,13.00
2023-02-08T15:48:03.693Z,14.25
2023-02-08T15:50:33.454Z,9.00
2023-02-08T15:53:05.641Z,18.25
2023-02-08T15:55:41.562Z,13.50
2023-02-08T15:58:19.263Z,18.00
2023-02-08T16:00:48.222Z,14.50
2023-02-08T16:03:23.742Z,16.00
2023-02-08T16:05:55.466Z,16.00
2023-02-08T16:08:28.280Z,18.00
2023-02-08T16:11:01.953Z,19.00
2023-02-08T16:13:33.188Z,18.75
2023-02-08T16:16:18.414Z,17.50
2023-02-08T16:18:50.296Z,13.00
2023-02-08T16:21:28.637Z,22.50
2023-02-08T16:24:01.230Z,19.50
2023-02-08T16:26:35.640Z,18.00
2023-02-08T16:29:07.496Z,15.25
2023-02-08T16:31:37.356Z,17.00
2023-02-08T16:34:08.932Z,17.50
2023-02-08T16:36:41.573Z,21.00
2023-02-08T16:39:31.321Z,15.50
2023-02-08T16:42:14.544Z,20.50
2023-02-08T16:45:01.352Z,17.50
2023-02-08T16:47:37.943Z,19.00
2023-02-08T16:50:07.332Z,13.25
2023-02-08T16:52:36.622Z,18.75
2023-02-08T16:55:08.353Z,20.00
2023-02-08T16:57:45.180Z,24.00
2023-02-08T17:00:21.644Z,21.50
2023-02-08T17:02:50.429Z,21.75
2023-02-08T17:05:21.038Z,20.00
2023-02-08T17:07:53.490Z,12.75
2023-02-08T17:10:29.032Z,25.00
2023-02-08T17:13:13.476Z,22.50
2023-02-08T17:15:48.147Z,26.75
2023-02-08T17:18:16.783Z,24.50
2023-02-08T17:20:45.630Z,24.00
2023-02-08T17:23:15.820Z,26.50
2023-02-08T17:25:46.286Z,27.75
2023-02-08T17:28:19.283Z,26.50
2023-02-08T17:30:49.508Z,23.75
2023-02-08T17:33:21.175Z,21.50
2023-02-08T17:35:51.261Z,26.50
2023-02-08T17:38:20.498Z,27.00
2023-02-08T17:40:50.604Z,25.00
2023-02-08T17:43:19.124Z,26.00
2023-02-08T17:45:48.053Z,23.50
2023-02-08T17:48:17.146Z,22.00
2023-02-08T17:50:51.096Z,21.25
2023-02-08T17:53:20.879Z,21.00
2023-02-08T17:55:51.372Z,26.50
2023-02-08T17:58:20.183Z,18.25
2023-02-08T18:00:53.951Z,24.00
2023-02-08T18:03:22.851Z,23.50
2023-02-08T18:05:57.324Z,20.00
2023-02-08T18:08:28.840Z,21.00
2023-02-08T18:11:04.817Z,25.25
2023-02-08T18:13:39.718Z,19.50
2023-02-08T18:16:10.127Z,23.75
2023-02-08T18:18:39.693Z,23.50
2023-02-08T18:21:13.863Z,28.00
2023-02-08T18:23:43.389Z,28.75
2023-02-08T18:26:16.078Z,21.25
2023-02-08T18:28:45.291Z,27.75
2023-02-08T18:31:16.193Z,29.00
2023-02-08T18:33:45.604Z,28.50
2023-02-08T18:36:15.799Z,27.00
2023-02-08T18:38:45.792Z,27.00
2023-02-08T18:41:18.471Z,30.25
2023-02-08T18:43:47.173Z,30.75
2023-02-08T18:46:18.087Z,29.00
2023-02-08T18:48:47.289Z,27.75
2023-02-08T18:51:22.733Z,30.00
2023-02-08T18:53:53.796Z,25.00
2023-02-08T18:56:26.699Z,29.00
2023-02-08T18:58:56.893Z,22.50
2023-02-08T19:01:26.303Z,29.50
2023-02-08T19:03:55.317Z,27.25
2023-02-08T19:06:25.616Z,30.00
2023-02-08T19:08:55.836Z,22.50
2023-02-08T19:11:28.116Z,27.00
2023-02-08T19:13:59.317Z,27.50
2023-02-08T19:16:28.872Z,23.00
2023-02-08T19:18:57.708Z,23.00
2023-02-08T19:21:26.438Z,24.50
2023-02-08T19:23:58.224Z,22.75
2023-02-08T19:26:30.017Z,23.50
2023-02-08T19:29:03.171Z,22.50
2023-02-08T19:31:33.303Z,24.00
2023-02-08T19:34:03.319Z,29.50
2023-02-08T19:36:33.803Z,24.50
2023-02-08T19:39:03.492Z,28.50
2023-02-08T19:41:37.681Z,29.00
2023-02-08T19:44:08.370Z,27.50
2023-02-08T19:46:39.291Z,25.00
2023-02-08T19:49:08.816Z,29.50
2023-02-08T19:51:38.472Z,28.75
2023-02-08T19:54:10.318Z,28.00
2023-02-08T19:56:40.628Z,28.00
2023-02-08T19:59:19.690Z,28.50
2023-02-08T20:01:51.425Z,22.00
2023-02-08T20:04:20.151Z,27.25
2023-02-08T20:06:52.883Z,30.00
2023-02-08T20:09:22.131Z,26.50
2023-02-08T20:12:00.084Z,26.75
2023-02-08T20:14:34.781Z,26.00
2023-02-08T20:17:04.340Z,28.00
2023-02-08T20:19:33.392Z,24.00
2023-02-08T20:22:02.156Z,21.25
2023-02-08T20:24:30.969Z,24.50
2023-02-08T20:27:05.820Z,25.00
2023-02-08T20:29:34.614Z,27.00
2023-02-08T20:32:03.439Z,29.00
2023-02-08T20:34:35.080Z,25.50
2023-02-08T20:37:07.641Z,27.25
2023-02-08T20:39:39.476Z,31.00
2023-02-08T20:42:18.130Z,30.25
2023-02-08T20:44:47.249Z,30.00
2023-02-08T20:47:19.467Z,26.50
2023-02-08T20:49:50.172Z,33.00
2023-02-08T20:52:20.294Z,27.00
2023-02-08T20:54:52.224Z,25.50
2023-02-08T20:57:22.354Z,14.50
2023-02-08T20:59:52.546Z,26.50
2023-02-08T21:02:24.288Z,27.25
2023-02-08T21:04:53.049Z,30.00
2023-02-08T21:07:21.679Z,3.00
2023-02-08T21:09:50.391Z,29.00
2023-02-08T21:12:19.091Z,33.25
2023-02-08T21:14:49.668Z,30.00
2023-02-08T21:17:18.774Z,26.50
2023-02-08T21:19:47.811Z,29.00
2023-02-08T21:22:17.221Z,33.00
2023-02-08T21:24:45.768Z,33.00
2023-02-08T21:27:14.384Z,34.00
2023-02-08T21:29:43.036Z,5.00
2023-02-08T21:32:12.984Z,21.25
2023-02-08T21:34:41.626Z,36.00
2023-02-08T21:42:15.123Z,33.00
2023-02-08T21:44:44.134Z,15.25
2023-02-08T21:47:14.195Z,35.50
2023-02-08T21:50:00.096Z,34.00
2023-02-08T21:52:46.312Z,36.00
2023-02-08T22:01:14.897Z,36.25
2023-02-08T22:04:29.756Z,30.50
2023-02-08T22:07:19.236Z,36.25
2023-02-08T22:09:48.157Z,36.00
2023-02-08T22:12:18.888Z,36.00
2023-02-08T22:14:47.988Z,32.75
2023-02-08T22:17:17.386Z,34.00
2023-02-08T22:19:47.894Z,35.50
2023-02-08T22:22:16.363Z,37.75
2023-02-08T22:24:44.856Z,39.50
2023-02-08T22:27:18.450Z,37.75
2023-02-08T22:29:52.776Z,39.25
2023-02-08T22:32:21.589Z,35.50
2023-02-08T22:34:51.493Z,34.00
2023-02-08T22:37:20.001Z,35.50
2023-02-08T22:39:48.520Z,35.00
2023-02-08T22:42:17.074Z,39.00
2023-02-08T22:44:46.229Z,34.00
2023-02-08T22:47:15.203Z,35.00
2023-02-08T22:49:43.777Z,38.00
2023-02-08T22:52:14.452Z,39.50
2023-02-08T22:54:43.016Z,39.50
2023-02-08T22:57:12.068Z,39.50
2023-02-08T22:59:41.387Z,36.00
2023-02-08T23:02:09.969Z,41.00
2023-02-08T23:04:38.750Z,37.50
2023-02-08T23:07:07.189Z,24.75
2023-02-08T23:09:37.002Z,39.00
2023-02-08T23:12:05.560Z,36.00
2023-02-08T23:14:34.216Z,40.00
2023-02-08T23:17:02.984Z,36.00
2023-02-08T23:19:31.719Z,33.50
2023-02-08T23:22:00.645Z,33.00
2023-02-08T23:24:29.120Z,36.00
2023-02-08T23:26:59.041Z,36.25
2023-02-08T23:29:27.708Z,34.25
2023-02-08T23:31:56.152Z,36.00
2023-02-08T23:34:24.813Z,33.75
2023-02-08T23:36:53.224Z,35.50
2023-02-08T23:39:22.136Z,36.00
2023-02-08T23:41:50.545Z,35.50
2023-02-08T23:44:20.802Z,34.00
2023-02-08T23:46:49.208Z,36.00
2023-02-08T23:49:17.659Z,21.00
2023-02-08T23:51:46.023Z,36.75
2023-02-08T23:54:14.470Z,39.00
2023-02-08T23:56:42.922Z,34.50
2023-02-08T23:59:12.050Z,34.50
